VHHHRPVP

Guest
Details From VHHH - Hong Kong Intl
To RPVP - Puerto Princesa
Flight Number -
Tags Generated
Created
Modified
Stats Distance 805 nm / 1,490 km
Max Altitude 0 ft / 0 m
Waypoints 3
Social Downloads 1
Likes 0
Share VATSIM

Download

Looking for another format? Having issues loading an existing format? Contact us
Advertisement - Login to hide

Notes

Generated

Route

VHHH PR RPVP

ID Type Via Altitude Latitude Longitude Leg Dist Tot Dist Heading (true) Name
O VHHH APT - 0 ft / 0 m 22.29628˚ 113.89799˚ - 0 nm - -
PR VOR - 0 ft / 0 m 9.74133˚ 118.75294˚ 804 nm 804 nm 159° / 160° PUERTO PRINCESA VOR-DME
O RPVP APT - 0 ft / 0 m 9.74263˚ 118.74689˚ 0 nm 804 nm 282° / 282° -

Altitude Profile

Advertisement - Login to hide

Weather


0- 5 10 15 20 25 30 35+ Temperature / ° C

Clouds and Precipitation
Forecast for 2018-05-27 06:00 UTC. Updated 3 hours ago

Ground ~20,000 ft ~40,000 ft Winds

VHHH

Details ICAO VHHH (HKG)
Name Hong Kong Intl
Region Hong Kong
Timezone Unknown (UTC+0.0)
Stats Elevation 28 ft / 9 m (AMSL)
Location 22.308995° 113.914610°
Runways 2
Magnetic Variation 2.851° W

METAR

VHHH 270807Z 25011KT 220V280 5000 2700S -SHRA FEW016TCU SCT020 27/23 Q1008 WS R25R TEMPO 3500 -TSRA SHRA FEW015CB

Decode

TAF

TAF VHHH 270500Z 2706/2812 24010KT 9999 FEW020 TX35/2706Z TX35/2806Z TN28/2721Z TEMPO 2706/2711 3000 -TSRA SHRA FEW012CB SCT025 TEMPO 2720/2802 30010KT 4000 SHRA FEW015CB SCT025

Decode

Departure Runways

ID Width Length Bearing (true) Bearing (mag) Surface Threshold Offset Overrun Length
07L 197 ft / 60 m 12,457 ft / 3,797 m 70.79° 73.64° Asphalt 564 ft / 172 m 866 ft / 264 m
07R 197 ft / 60 m 12,458 ft / 3,797 m 70.79° 73.64° Asphalt 525 ft / 160 m 886 ft / 270 m
25L 197 ft / 60 m 12,458 ft / 3,797 m 250.80° 253.65° Asphalt 0 ft / 0 m 840 ft / 256 m
25R 197 ft / 60 m 12,457 ft / 3,797 m 250.80° 253.65° Asphalt 581 ft / 177 m 860 ft / 262 m

RPVP

Details ICAO RPVP (PPS)
Name PUERTO PRINCESA
Region Philippines
Timezone Asia/Manila (UTC+8.0)
Stats Elevation 71 ft / 22 m (AMSL)
Location 9.742119° 118.758730°
Runways 1
Magnetic Variation 1.197° W

METAR

RPVP 270800Z 09006KT 9999 FEW019 33/24 Q1007 RMK A2974

Decode

TAF

Not found

Destination Runways

ID Width Length Bearing (true) Bearing (mag) Surface Threshold Offset Overrun Length
09 148 ft / 45 m 8,526 ft / 2,599 m 92.52° 93.72° Concrete 0 ft / 0 m 560 ft / 171 m
27 148 ft / 45 m 8,526 ft / 2,599 m 272.52° 273.72° Concrete 0 ft / 0 m 574 ft / 175 m

Popular Alternatives